sensor_id;sensor_type;location;lat;lon;timestamp;temperature;humidity
14122;DHT22;7139;48.114;11.442;2022-10-03T00:01:42;12.10;99.90
14122;DHT22;7139;48.114;11.442;2022-10-03T00:04:22;12.10;99.90
14122;DHT22;7139;48.114;11.442;2022-10-03T00:07:01;12.10;99.90
14122;DHT22;7139;48.114;11.442;2022-10-03T00:09:45;12.10;99.90
14122;DHT22;7139;48.114;11.442;2022-10-03T00:12:33;12.10;99.90
14122;DHT22;7139;48.114;11.442;2022-10-03T00:15:04;12.10;99.90
14122;DHT22;7139;48.114;11.442;2022-10-03T00:17:45;12.10;99.90
14122;DHT22;7139;48.114;11.442;2022-10-03T00:20:37;12.10;99.90
14122;DHT22;7139;48.114;11.442;2022-10-03T00:23:10;12.00;99.90
14122;DHT22;7139;48.114;11.442;2022-10-03T00:25:42;12.00;99.90
14122;DHT22;7139;48.114;11.442;2022-10-03T00:28:20;12.00;99.90
14122;DHT22;7139;48.114;11.442;2022-10-03T00:31:01;12.00;99.90
14122;DHT22;7139;48.114;11.442;2022-10-03T00:33:37;12.00;99.90
14122;DHT22;7139;48.114;11.442;2022-10-03T00:36:09;11.90;99.90
14122;DHT22;7139;48.114;11.442;2022-10-03T00:39:02;11.90;99.90
14122;DHT22;7139;48.114;11.442;2022-10-03T00:42:08;11.90;99.90
14122;DHT22;7139;48.114;11.442;2022-10-03T00:51:08;11.80;99.90
14122;DHT22;7139;48.114;11.442;2022-10-03T00:53:53;11.70;99.90
14122;DHT22;7139;48.114;11.442;2022-10-03T00:56:48;11.70;99.90
14122;DHT22;7139;48.114;11.442;2022-10-03T00:59:32;11.60;99.90
14122;DHT22;7139;48.114;11.442;2022-10-03T01:02:23;11.60;99.90
14122;DHT22;7139;48.114;11.442;2022-10-03T01:05:00;11.50;99.90
14122;DHT22;7139;48.114;11.442;2022-10-03T01:07:47;11.50;99.90
14122;DHT22;7139;48.114;11.442;2022-10-03T01:10:18;11.50;99.90
14122;DHT22;7139;48.114;11.442;2022-10-03T01:13:02;11.50;99.90
14122;DHT22;7139;48.114;11.442;2022-10-03T01:15:41;11.40;99.90
14122;DHT22;7139;48.114;11.442;2022-10-03T01:18:27;11.40;99.90
14122;DHT22;7139;48.114;11.442;2022-10-03T01:21:03;11.40;99.90
14122;DHT22;7139;48.114;11.442;2022-10-03T01:23:48;11.40;99.90
14122;DHT22;7139;48.114;11.442;2022-10-03T01:26:42;11.40;99.90
14122;DHT22;7139;48.114;11.442;2022-10-03T01:29:18;11.30;99.90
14122;DHT22;7139;48.114;11.442;2022-10-03T01:32:07;11.30;99.90
14122;DHT22;7139;48.114;11.442;2022-10-03T01:34:40;11.30;99.90
14122;DHT22;7139;48.114;11.442;2022-10-03T01:37:10;11.20;99.90
14122;DHT22;7139;48.114;11.442;2022-10-03T01:39:48;11.20;99.90
14122;DHT22;7139;48.114;11.442;2022-10-03T01:42:34;11.10;99.90
14122;DHT22;7139;48.114;11.442;2022-10-03T01:45:14;11.10;99.90
14122;DHT22;7139;48.114;11.442;2022-10-03T01:47:50;11.10;99.90
14122;DHT22;7139;48.114;11.442;2022-10-03T01:50:24;11.10;99.90
14122;DHT22;7139;48.114;11.442;2022-10-03T01:52:58;11.10;99.90
14122;DHT22;7139;48.114;11.442;2022-10-03T01:55:33;11.10;99.90
14122;DHT22;7139;48.114;11.442;2022-10-03T01:58:04;11.10;99.90
14122;DHT22;7139;48.114;11.442;2022-10-03T02:00:43;11.00;99.90
14122;DHT22;7139;48.114;11.442;2022-10-03T02:03:19;11.00;99.90
14122;DHT22;7139;48.114;11.442;2022-10-03T02:05:53;11.00;99.90
14122;DHT22;7139;48.114;11.442;2022-10-03T02:08:27;11.00;99.90
14122;DHT22;7139;48.114;11.442;2022-10-03T02:11:00;10.90;99.90
14122;DHT22;7139;48.114;11.442;2022-10-03T02:13:39;10.90;99.90
14122;DHT22;7139;48.114;11.442;2022-10-03T02:16:10;10.90;99.90
14122;DHT22;7139;48.114;11.442;2022-10-03T02:18:45;10.80;99.90
14122;DHT22;7139;48.114;11.442;2022-10-03T02:21:16;10.90;99.90
14122;DHT22;7139;48.114;11.442;2022-10-03T02:23:45;10.80;99.90
14122;DHT22;7139;48.114;11.442;2022-10-03T02:29:40;10.80;99.90
14122;DHT22;7139;48.114;11.442;2022-10-03T02:35:35;10.70;99.90
14122;DHT22;7139;48.114;11.442;2022-10-03T02:38:33;10.70;99.90
14122;DHT22;7139;48.114;11.442;2022-10-03T02:41:40;10.70;99.90
14122;DHT22;7139;48.114;11.442;2022-10-03T02:44:37;10.60;99.90
14122;DHT22;7139;48.114;11.442;2022-10-03T02:47:45;10.60;99.90
14122;DHT22;7139;48.114;11.442;2022-10-03T02:50:42;10.50;99.90
14122;DHT22;7139;48.114;11.442;2022-10-03T02:53:52;10.50;99.90
14122;DHT22;7139;48.114;11.442;2022-10-03T02:56:51;10.50;99.90
14122;DHT22;7139;48.114;11.442;2022-10-03T02:59:43;10.40;99.90
14122;DHT22;7139;48.114;11.442;2022-10-03T03:05:24;10.40;99.90
14122;DHT22;7139;48.114;11.442;2022-10-03T03:08:17;10.30;99.90
14122;DHT22;7139;48.114;11.442;2022-10-03T03:11:05;10.30;99.90
14122;DHT22;7139;48.114;11.442;2022-10-03T03:13:50;10.30;99.90
14122;DHT22;7139;48.114;11.442;2022-10-03T03:16:59;10.20;99.90
14122;DHT22;7139;48.114;11.442;2022-10-03T03:19:43;10.20;99.90
14122;DHT22;7139;48.114;11.442;2022-10-03T03:22:32;10.10;99.90
14122;DHT22;7139;48.114;11.442;2022-10-03T03:28:09;10.10;99.90
14122;DHT22;7139;48.114;11.442;2022-10-03T03:30:46;10.10;99.90
14122;DHT22;7139;48.114;11.442;2022-10-03T03:33:22;10.10;99.90
14122;DHT22;7139;48.114;11.442;2022-10-03T03:35:58;10.00;99.90
14122;DHT22;7139;48.114;11.442;2022-10-03T03:38:32;10.00;99.90
14122;DHT22;7139;48.114;11.442;2022-10-03T03:41:17;10.00;99.90
14122;DHT22;7139;48.114;11.442;2022-10-03T03:43:57;10.00;99.90
14122;DHT22;7139;48.114;11.442;2022-10-03T03:46:38;9.90;99.90
14122;DHT22;7139;48.114;11.442;2022-10-03T03:49:26;9.90;99.90
14122;DHT22;7139;48.114;11.442;2022-10-03T03:52:07;9.90;99.90
14122;DHT22;7139;48.114;11.442;2022-10-03T03:58:04;9.80;99.90
14122;DHT22;7139;48.114;11.442;2022-10-03T04:00:44;9.80;99.90
14122;DHT22;7139;48.114;11.442;2022-10-03T04:03:29;9.70;99.90
14122;DHT22;7139;48.114;11.442;2022-10-03T04:06:10;9.70;99.90
14122;DHT22;7139;48.114;11.442;2022-10-03T04:11:57;9.70;99.90
14122;DHT22;7139;48.114;11.442;2022-10-03T04:14:44;9.60;99.90
14122;DHT22;7139;48.114;11.442;2022-10-03T04:17:29;9.60;99.90
14122;DHT22;7139;48.114;11.442;2022-10-03T04:20:27;9.60;99.90
14122;DHT22;7139;48.114;11.442;2022-10-03T04:23:15;9.60;99.90
14122;DHT22;7139;48.114;11.442;2022-10-03T04:26:01;9.60;99.90
14122;DHT22;7139;48.114;11.442;2022-10-03T04:28:50;9.60;99.90
14122;DHT22;7139;48.114;11.442;2022-10-03T04:31:31;9.60;99.90
14122;DHT22;7139;48.114;11.442;2022-10-03T04:34:19;9.60;99.90
14122;DHT22;7139;48.114;11.442;2022-10-03T04:37:00;9.60;99.90
14122;DHT22;7139;48.114;11.442;2022-10-03T04:39:36;9.50;99.90
14122;DHT22;7139;48.114;11.442;2022-10-03T04:42:16;9.50;99.90
14122;DHT22;7139;48.114;11.442;2022-10-03T04:45:03;9.50;99.90
14122;DHT22;7139;48.114;11.442;2022-10-03T04:47:42;9.50;99.90
14122;DHT22;7139;48.114;11.442;2022-10-03T04:50:20;9.40;99.90
14122;DHT22;7139;48.114;11.442;2022-10-03T04:52:57;9.40;99.90
14122;DHT22;7139;48.114;11.442;2022-10-03T04:55:37;9.40;99.90
14122;DHT22;7139;48.114;11.442;2022-10-03T04:58:15;9.30;99.90
14122;DHT22;7139;48.114;11.442;2022-10-03T05:00:55;9.30;99.90
14122;DHT22;7139;48.114;11.442;2022-10-03T05:03:37;9.20;99.90
14122;DHT22;7139;48.114;11.442;2022-10-03T05:06:25;9.20;99.90
14122;DHT22;7139;48.114;11.442;2022-10-03T05:09:00;9.20;99.90
14122;DHT22;7139;48.114;11.442;2022-10-03T05:11:42;9.10;99.90
14122;DHT22;7139;48.114;11.442;2022-10-03T05:14:19;9.10;99.90
14122;DHT22;7139;48.114;11.442;2022-10-03T05:16:54;9.10;99.90
14122;DHT22;7139;48.114;11.442;2022-10-03T05:19:49;9.10;99.90
14122;DHT22;7139;48.114;11.442;2022-10-03T05:22:31;9.10;99.90
14122;DHT22;7139;48.114;11.442;2022-10-03T05:25:14;9.10;99.90
14122;DHT22;7139;48.114;11.442;2022-10-03T05:27:49;9.00;99.90
14122;DHT22;7139;48.114;11.442;2022-10-03T05:30:35;9.00;99.90
14122;DHT22;7139;48.114;11.442;2022-10-03T05:33:08;9.00;99.90
14122;DHT22;7139;48.114;11.442;2022-10-03T05:35:50;9.00;99.90
14122;DHT22;7139;48.114;11.442;2022-10-03T05:38:39;9.00;99.90
14122;DHT22;7139;48.114;11.442;2022-10-03T05:41:19;9.00;99.90
14122;DHT22;7139;48.114;11.442;2022-10-03T05:43:56;9.00;99.90
14122;DHT22;7139;48.114;11.442;2022-10-03T05:46:40;9.00;99.90
14122;DHT22;7139;48.114;11.442;2022-10-03T05:52:43;9.10;99.90
14122;DHT22;7139;48.114;11.442;2022-10-03T05:55:28;9.00;99.90
14122;DHT22;7139;48.114;11.442;2022-10-03T06:01:25;9.00;99.90
14122;DHT22;7139;48.114;11.442;2022-10-03T06:04:07;9.00;99.90
14122;DHT22;7139;48.114;11.442;2022-10-03T06:06:53;9.00;99.90
14122;DHT22;7139;48.114;11.442;2022-10-03T06:12:29;9.00;99.90
14122;DHT22;7139;48.114;11.442;2022-10-03T06:15:12;9.00;99.90
14122;DHT22;7139;48.114;11.442;2022-10-03T06:18:01;9.00;99.90
14122;DHT22;7139;48.114;11.442;2022-10-03T06:21:02;9.00;99.90
14122;DHT22;7139;48.114;11.442;2022-10-03T06:26:49;9.10;99.90
14122;DHT22;7139;48.114;11.442;2022-10-03T06:32:38;9.20;99.90
14122;DHT22;7139;48.114;11.442;2022-10-03T06:35:45;9.30;99.90
14122;DHT22;7139;48.114;11.442;2022-10-03T06:41:58;9.50;99.90
14122;DHT22;7139;48.114;11.442;2022-10-03T06:44:39;9.50;99.90
14122;DHT22;7139;48.114;11.442;2022-10-03T06:47:19;9.60;99.90
14122;DHT22;7139;48.114;11.442;2022-10-03T06:50:14;9.70;99.90
14122;DHT22;7139;48.114;11.442;2022-10-03T06:53:11;9.80;99.90
14122;DHT22;7139;48.114;11.442;2022-10-03T06:56:03;9.90;99.90
14122;DHT22;7139;48.114;11.442;2022-10-03T06:59:00;9.90;99.90
14122;DHT22;7139;48.114;11.442;2022-10-03T07:05:15;10.10;99.90
14122;DHT22;7139;48.114;11.442;2022-10-03T07:14:14;10.30;99.90
14122;DHT22;7139;48.114;11.442;2022-10-03T07:17:13;10.30;99.90
14122;DHT22;7139;48.114;11.442;2022-10-03T07:32:19;10.70;99.90
14122;DHT22;7139;48.114;11.442;2022-10-03T07:38:37;10.80;99.90
14122;DHT22;7139;48.114;11.442;2022-10-03T07:41:42;10.90;99.90
14122;DHT22;7139;48.114;11.442;2022-10-03T07:44:53;10.90;99.90
14122;DHT22;7139;48.114;11.442;2022-10-03T07:48:08;10.90;99.90
14122;DHT22;7139;48.114;11.442;2022-10-03T07:50:54;11.00;99.90
14122;DHT22;7139;48.114;11.442;2022-10-03T07:54:01;11.10;99.90
14122;DHT22;7139;48.114;11.442;2022-10-03T07:56:54;11.10;99.90
14122;DHT22;7139;48.114;11.442;2022-10-03T08:02:50;11.30;99.90
14122;DHT22;7139;48.114;11.442;2022-10-03T08:05:32;11.20;99.90
14122;DHT22;7139;48.114;11.442;2022-10-03T08:08:17;11.20;99.90
14122;DHT22;7139;48.114;11.442;2022-10-03T08:11:08;11.30;99.90
14122;DHT22;7139;48.114;11.442;2022-10-03T08:13:54;11.40;99.90
14122;DHT22;7139;48.114;11.442;2022-10-03T08:16:48;11.40;99.90
14122;DHT22;7139;48.114;11.442;2022-10-03T08:19:27;11.50;99.90
14122;DHT22;7139;48.114;11.442;2022-10-03T08:22:04;11.50;99.90
14122;DHT22;7139;48.114;11.442;2022-10-03T08:24:55;11.60;99.90
14122;DHT22;7139;48.114;11.442;2022-10-03T08:27:49;11.50;99.90
14122;DHT22;7139;48.114;11.442;2022-10-03T08:30:21;11.40;99.90
14122;DHT22;7139;48.114;11.442;2022-10-03T08:36:22;11.50;99.90
14122;DHT22;7139;48.114;11.442;2022-10-03T08:39:15;11.50;99.90
14122;DHT22;7139;48.114;11.442;2022-10-03T08:42:16;11.60;99.90
14122;DHT22;7139;48.114;11.442;2022-10-03T08:45:04;11.60;99.90
14122;DHT22;7139;48.114;11.442;2022-10-03T08:48:06;11.60;99.90
14122;DHT22;7139;48.114;11.442;2022-10-03T08:56:45;11.70;99.90
14122;DHT22;7139;48.114;11.442;2022-10-03T09:00:00;11.60;99.90
14122;DHT22;7139;48.114;11.442;2022-10-03T09:05:47;11.70;99.90
14122;DHT22;7139;48.114;11.442;2022-10-03T09:08:45;11.70;99.90
14122;DHT22;7139;48.114;11.442;2022-10-03T09:11:40;11.70;99.90
14122;DHT22;7139;48.114;11.442;2022-10-03T09:14:38;11.70;99.90
14122;DHT22;7139;48.114;11.442;2022-10-03T09:17:27;11.70;99.90
14122;DHT22;7139;48.114;11.442;2022-10-03T09:20:42;11.80;99.90
14122;DHT22;7139;48.114;11.442;2022-10-03T09:23:25;11.80;99.90
14122;DHT22;7139;48.114;11.442;2022-10-03T09:26:37;11.80;99.90
14122;DHT22;7139;48.114;11.442;2022-10-03T09:29:58;11.90;99.90
14122;DHT22;7139;48.114;11.442;2022-10-03T09:32:57;12.00;99.90
14122;DHT22;7139;48.114;11.442;2022-10-03T09:35:49;12.10;99.90
14122;DHT22;7139;48.114;11.442;2022-10-03T09:38:53;12.40;99.90
14122;DHT22;7139;48.114;11.442;2022-10-03T10:00:24;13.50;99.90
14122;DHT22;7139;48.114;11.442;2022-10-03T10:03:25;13.70;99.90
14122;DHT22;7139;48.114;11.442;2022-10-03T10:06:17;13.70;99.90
14122;DHT22;7139;48.114;11.442;2022-10-03T10:15:16;13.30;99.90
14122;DHT22;7139;48.114;11.442;2022-10-03T10:21:28;12.90;99.90
14122;DHT22;7139;48.114;11.442;2022-10-03T10:24:16;12.90;99.90
14122;DHT22;7139;48.114;11.442;2022-10-03T10:27:19;12.80;99.90
14122;DHT22;7139;48.114;11.442;2022-10-03T10:30:12;12.80;99.90
14122;DHT22;7139;48.114;11.442;2022-10-03T10:33:21;12.70;99.90
14122;DHT22;7139;48.114;11.442;2022-10-03T10:36:17;12.60;99.90
14122;DHT22;7139;48.114;11.442;2022-10-03T10:42:32;12.50;99.90
14122;DHT22;7139;48.114;11.442;2022-10-03T10:45:32;12.50;99.90
14122;DHT22;7139;48.114;11.442;2022-10-03T10:49:12;12.70;99.90
14122;DHT22;7139;48.114;11.442;2022-10-03T11:01:21;13.10;99.90
14122;DHT22;7139;48.114;11.442;2022-10-03T11:04:24;13.20;99.90
14122;DHT22;7139;48.114;11.442;2022-10-03T11:10:34;13.20;99.90
14122;DHT22;7139;48.114;11.442;2022-10-03T11:22:49;13.30;99.90
14122;DHT22;7139;48.114;11.442;2022-10-03T11:32:13;14.20;99.90
14122;DHT22;7139;48.114;11.442;2022-10-03T11:38:05;14.70;99.90
14122;DHT22;7139;48.114;11.442;2022-10-03T11:40:46;14.90;99.90
14122;DHT22;7139;48.114;11.442;2022-10-03T11:43:39;15.00;99.90
14122;DHT22;7139;48.114;11.442;2022-10-03T11:46:22;15.20;99.90
14122;DHT22;7139;48.114;11.442;2022-10-03T11:48:58;15.10;99.90
14122;DHT22;7139;48.114;11.442;2022-10-03T11:51:36;15.10;99.90
14122;DHT22;7139;48.114;11.442;2022-10-03T11:54:15;14.80;99.90
14122;DHT22;7139;48.114;11.442;2022-10-03T11:56:46;14.70;99.90
14122;DHT22;7139;48.114;11.442;2022-10-03T11:59:37;14.70;99.90
14122;DHT22;7139;48.114;11.442;2022-10-03T12:02:14;15.00;99.90
14122;DHT22;7139;48.114;11.442;2022-10-03T12:04:52;14.90;99.90
14122;DHT22;7139;48.114;11.442;2022-10-03T12:07:36;15.00;99.90
14122;DHT22;7139;48.114;11.442;2022-10-03T12:10:34;15.10;99.90
14122;DHT22;7139;48.114;11.442;2022-10-03T12:13:08;15.30;99.90
14122;DHT22;7139;48.114;11.442;2022-10-03T12:15:41;15.50;99.90
14122;DHT22;7139;48.114;11.442;2022-10-03T12:18:14;15.30;99.90
14122;DHT22;7139;48.114;11.442;2022-10-03T12:21:01;15.40;99.90
14122;DHT22;7139;48.114;11.442;2022-10-03T12:23:49;15.50;99.90
14122;DHT22;7139;48.114;11.442;2022-10-03T12:26:26;15.60;99.90
14122;DHT22;7139;48.114;11.442;2022-10-03T12:28:55;15.70;99.90
14122;DHT22;7139;48.114;11.442;2022-10-03T12:31:28;15.70;99.90
14122;DHT22;7139;48.114;11.442;2022-10-03T12:34:00;15.70;99.90
14122;DHT22;7139;48.114;11.442;2022-10-03T12:36:35;15.70;99.60
14122;DHT22;7139;48.114;11.442;2022-10-03T12:39:17;15.70;99.90
14122;DHT22;7139;48.114;11.442;2022-10-03T12:42:01;15.90;99.90
14122;DHT22;7139;48.114;11.442;2022-10-03T12:44:39;16.00;99.90
14122;DHT22;7139;48.114;11.442;2022-10-03T12:47:23;16.10;99.40
14122;DHT22;7139;48.114;11.442;2022-10-03T12:49:55;16.10;99.50
14122;DHT22;7139;48.114;11.442;2022-10-03T12:52:28;16.00;99.20
14122;DHT22;7139;48.114;11.442;2022-10-03T12:55:15;15.80;98.30
14122;DHT22;7139;48.114;11.442;2022-10-03T12:57:49;15.80;98.50
14122;DHT22;7139;48.114;11.442;2022-10-03T13:00:21;15.80;99.10
14122;DHT22;7139;48.114;11.442;2022-10-03T13:03:14;15.80;98.80
14122;DHT22;7139;48.114;11.442;2022-10-03T13:05:54;15.80;97.90
14122;DHT22;7139;48.114;11.442;2022-10-03T13:08:39;15.80;98.10
14122;DHT22;7139;48.114;11.442;2022-10-03T13:11:21;15.70;98.60
14122;DHT22;7139;48.114;11.442;2022-10-03T13:14:06;15.60;98.50
14122;DHT22;7139;48.114;11.442;2022-10-03T13:16:38;15.50;97.90
14122;DHT22;7139;48.114;11.442;2022-10-03T13:19:11;15.50;98.00
14122;DHT22;7139;48.114;11.442;2022-10-03T13:21:53;15.40;98.00
14122;DHT22;7139;48.114;11.442;2022-10-03T13:24:32;15.40;97.50
14122;DHT22;7139;48.114;11.442;2022-10-03T13:27:24;15.50;98.10
14122;DHT22;7139;48.114;11.442;2022-10-03T13:30:03;15.40;97.70
14122;DHT22;7139;48.114;11.442;2022-10-03T13:32:33;15.50;97.40
14122;DHT22;7139;48.114;11.442;2022-10-03T13:35:21;15.60;98.70
14122;DHT22;7139;48.114;11.442;2022-10-03T13:38:43;15.60;99.90
14122;DHT22;7139;48.114;11.442;2022-10-03T13:41:21;15.40;99.40
14122;DHT22;7139;48.114;11.442;2022-10-03T13:43:54;15.20;99.90
14122;DHT22;7139;48.114;11.442;2022-10-03T13:46:26;14.90;99.90
14122;DHT22;7139;48.114;11.442;2022-10-03T13:48:58;15.00;99.90
14122;DHT22;7139;48.114;11.442;2022-10-03T13:51:33;14.90;99.90
14122;DHT22;7139;48.114;11.442;2022-10-03T13:56:44;14.80;99.90
14122;DHT22;7139;48.114;11.442;2022-10-03T13:59:48;14.80;99.90
14122;DHT22;7139;48.114;11.442;2022-10-03T14:02:47;14.70;99.90
14122;DHT22;7139;48.114;11.442;2022-10-03T14:08:29;14.80;99.90
14122;DHT22;7139;48.114;11.442;2022-10-03T14:11:11;14.90;99.90
14122;DHT22;7139;48.114;11.442;2022-10-03T14:14:05;14.80;99.90
14122;DHT22;7139;48.114;11.442;2022-10-03T14:16:38;15.00;99.90
14122;DHT22;7139;48.114;11.442;2022-10-03T14:19:12;15.10;99.90
14122;DHT22;7139;48.114;11.442;2022-10-03T14:21:56;15.00;99.90
14122;DHT22;7139;48.114;11.442;2022-10-03T14:24:36;14.80;99.90
14122;DHT22;7139;48.114;11.442;2022-10-03T14:27:12;14.70;99.90
14122;DHT22;7139;48.114;11.442;2022-10-03T14:29:51;14.70;99.90
14122;DHT22;7139;48.114;11.442;2022-10-03T14:32:24;14.60;99.90
14122;DHT22;7139;48.114;11.442;2022-10-03T14:34:56;14.50;99.90
14122;DHT22;7139;48.114;11.442;2022-10-03T14:37:29;14.60;99.90
14122;DHT22;7139;48.114;11.442;2022-10-03T14:40:10;14.60;99.90
14122;DHT22;7139;48.114;11.442;2022-10-03T14:42:50;14.60;99.90
14122;DHT22;7139;48.114;11.442;2022-10-03T14:45:23;14.60;99.90
14122;DHT22;7139;48.114;11.442;2022-10-03T14:47:55;14.60;99.90
14122;DHT22;7139;48.114;11.442;2022-10-03T14:50:25;14.50;99.90
14122;DHT22;7139;48.114;11.442;2022-10-03T14:52:54;14.60;99.90
14122;DHT22;7139;48.114;11.442;2022-10-03T14:55:29;14.70;99.90
14122;DHT22;7139;48.114;11.442;2022-10-03T14:58:00;14.80;99.90
14122;DHT22;7139;48.114;11.442;2022-10-03T15:00:37;14.80;99.90
14122;DHT22;7139;48.114;11.442;2022-10-03T15:03:27;14.90;99.90
14122;DHT22;7139;48.114;11.442;2022-10-03T15:06:01;15.00;99.90
14122;DHT22;7139;48.114;11.442;2022-10-03T15:08:35;15.00;99.90
14122;DHT22;7139;48.114;11.442;2022-10-03T15:11:04;15.00;99.90
14122;DHT22;7139;48.114;11.442;2022-10-03T15:13:37;15.10;99.90
14122;DHT22;7139;48.114;11.442;2022-10-03T15:16:08;15.20;99.90
14122;DHT22;7139;48.114;11.442;2022-10-03T15:18:36;15.20;99.90
14122;DHT22;7139;48.114;11.442;2022-10-03T15:21:04;15.20;99.90
14122;DHT22;7139;48.114;11.442;2022-10-03T15:23:41;15.10;99.90
14122;DHT22;7139;48.114;11.442;2022-10-03T15:26:13;15.00;99.90
14122;DHT22;7139;48.114;11.442;2022-10-03T15:28:45;15.00;99.90
14122;DHT22;7139;48.114;11.442;2022-10-03T15:31:25;15.10;99.90
14122;DHT22;7139;48.114;11.442;2022-10-03T15:33:55;15.10;99.90
14122;DHT22;7139;48.114;11.442;2022-10-03T15:36:25;15.10;99.90
14122;DHT22;7139;48.114;11.442;2022-10-03T15:38:56;15.10;99.90
14122;DHT22;7139;48.114;11.442;2022-10-03T15:41:28;15.10;99.90
14122;DHT22;7139;48.114;11.442;2022-10-03T15:44:02;15.10;99.90
14122;DHT22;7139;48.114;11.442;2022-10-03T15:46:35;15.00;99.90
14122;DHT22;7139;48.114;11.442;2022-10-03T15:49:13;14.90;99.90
14122;DHT22;7139;48.114;11.442;2022-10-03T15:51:43;14.80;99.90
14122;DHT22;7139;48.114;11.442;2022-10-03T15:54:14;14.70;99.90
14122;DHT22;7139;48.114;11.442;2022-10-03T15:56:49;14.60;99.90
14122;DHT22;7139;48.114;11.442;2022-10-03T15:59:21;14.50;99.90
14122;DHT22;7139;48.114;11.442;2022-10-03T16:01:51;14.50;99.90
14122;DHT22;7139;48.114;11.442;2022-10-03T16:04:22;14.50;99.90
14122;DHT22;7139;48.114;11.442;2022-10-03T16:06:58;14.50;99.90
14122;DHT22;7139;48.114;11.442;2022-10-03T16:09:31;14.40;99.90
14122;DHT22;7139;48.114;11.442;2022-10-03T16:12:26;14.40;99.90
14122;DHT22;7139;48.114;11.442;2022-10-03T16:15:09;14.30;99.90
14122;DHT22;7139;48.114;11.442;2022-10-03T16:17:45;14.20;99.90
14122;DHT22;7139;48.114;11.442;2022-10-03T16:20:18;14.10;99.90
14122;DHT22;7139;48.114;11.442;2022-10-03T16:22:49;14.00;99.90
14122;DHT22;7139;48.114;11.442;2022-10-03T16:25:19;13.90;99.90
14122;DHT22;7139;48.114;11.442;2022-10-03T16:27:52;13.80;99.90
14122;DHT22;7139;48.114;11.442;2022-10-03T16:30:21;13.70;99.90
14122;DHT22;7139;48.114;11.442;2022-10-03T16:32:58;13.70;99.90
14122;DHT22;7139;48.114;11.442;2022-10-03T16:35:31;13.50;99.90
14122;DHT22;7139;48.114;11.442;2022-10-03T16:37:59;13.40;99.90
14122;DHT22;7139;48.114;11.442;2022-10-03T16:40:28;13.40;99.90
14122;DHT22;7139;48.114;11.442;2022-10-03T16:42:57;13.30;99.90
14122;DHT22;7139;48.114;11.442;2022-10-03T16:45:27;13.20;99.90
14122;DHT22;7139;48.114;11.442;2022-10-03T16:47:58;13.20;99.90
14122;DHT22;7139;48.114;11.442;2022-10-03T16:50:46;13.00;99.90
14122;DHT22;7139;48.114;11.442;2022-10-03T16:53:15;12.90;99.90
14122;DHT22;7139;48.114;11.442;2022-10-03T16:55:45;12.80;99.90
14122;DHT22;7139;48.114;11.442;2022-10-03T16:58:17;12.80;99.90
14122;DHT22;7139;48.114;11.442;2022-10-03T17:00:51;12.80;99.90
14122;DHT22;7139;48.114;11.442;2022-10-03T17:03:23;12.70;99.90
14122;DHT22;7139;48.114;11.442;2022-10-03T17:05:55;12.60;99.90
14122;DHT22;7139;48.114;11.442;2022-10-03T17:08:26;12.50;99.90
14122;DHT22;7139;48.114;11.442;2022-10-03T17:10:55;12.40;99.90
14122;DHT22;7139;48.114;11.442;2022-10-03T17:13:29;12.40;99.90
14122;DHT22;7139;48.114;11.442;2022-10-03T17:16:02;12.30;99.90
14122;DHT22;7139;48.114;11.442;2022-10-03T17:18:37;12.30;99.90
14122;DHT22;7139;48.114;11.442;2022-10-03T17:21:12;12.20;99.90
14122;DHT22;7139;48.114;11.442;2022-10-03T17:23:45;12.10;99.90
14122;DHT22;7139;48.114;11.442;2022-10-03T17:26:18;12.10;99.90
14122;DHT22;7139;48.114;11.442;2022-10-03T17:28:52;12.00;99.90
14122;DHT22;7139;48.114;11.442;2022-10-03T17:31:26;11.90;99.90
14122;DHT22;7139;48.114;11.442;2022-10-03T17:34:02;11.90;99.90
14122;DHT22;7139;48.114;11.442;2022-10-03T17:36:42;11.80;99.90
14122;DHT22;7139;48.114;11.442;2022-10-03T17:39:23;11.80;99.90
14122;DHT22;7139;48.114;11.442;2022-10-03T17:42:00;11.70;99.90
14122;DHT22;7139;48.114;11.442;2022-10-03T17:44:35;11.60;99.90
14122;DHT22;7139;48.114;11.442;2022-10-03T17:47:08;11.60;99.90
14122;DHT22;7139;48.114;11.442;2022-10-03T17:49:48;11.50;99.90
14122;DHT22;7139;48.114;11.442;2022-10-03T17:52:18;11.40;99.90
14122;DHT22;7139;48.114;11.442;2022-10-03T17:54:47;11.40;99.90
14122;DHT22;7139;48.114;11.442;2022-10-03T17:57:21;11.30;99.90
14122;DHT22;7139;48.114;11.442;2022-10-03T17:59:54;11.30;99.90
14122;DHT22;7139;48.114;11.442;2022-10-03T18:02:30;11.20;99.90
14122;DHT22;7139;48.114;11.442;2022-10-03T18:05:09;11.20;99.90
14122;DHT22;7139;48.114;11.442;2022-10-03T18:07:38;12.10;99.90
14122;DHT22;7139;48.114;11.442;2022-10-03T18:10:18;18.00;99.90
14122;DHT22;7139;48.114;11.442;2022-10-03T18:12:46;22.70;91.70
14122;DHT22;7139;48.114;11.442;2022-10-03T18:15:40;23.50;86.00
14122;DHT22;7139;48.114;11.442;2022-10-03T18:18:51;22.60;85.40
14122;DHT22;7139;48.114;11.442;2022-10-03T18:21:33;21.00;88.20
14122;DHT22;7139;48.114;11.442;2022-10-03T18:30:45;15.60;96.50
14122;DHT22;7139;48.114;11.442;2022-10-03T18:33:16;14.70;98.30
14122;DHT22;7139;48.114;11.442;2022-10-03T18:35:46;13.80;99.90
14122;DHT22;7139;48.114;11.442;2022-10-03T18:38:18;13.20;99.90
14122;DHT22;7139;48.114;11.442;2022-10-03T18:40:49;12.70;99.90
14122;DHT22;7139;48.114;11.442;2022-10-03T18:43:30;12.30;99.90
14122;DHT22;7139;48.114;11.442;2022-10-03T18:46:13;11.90;99.90
14122;DHT22;7139;48.114;11.442;2022-10-03T18:48:48;11.60;99.90
14122;DHT22;7139;48.114;11.442;2022-10-03T18:51:28;11.40;99.90
14122;DHT22;7139;48.114;11.442;2022-10-03T18:54:00;11.20;99.90
14122;DHT22;7139;48.114;11.442;2022-10-03T18:56:28;11.00;99.90
14122;DHT22;7139;48.114;11.442;2022-10-03T18:59:13;10.90;99.90
14122;DHT22;7139;48.114;11.442;2022-10-03T19:01:45;10.70;99.90
14122;DHT22;7139;48.114;11.442;2022-10-03T19:04:19;10.70;99.90
14122;DHT22;7139;48.114;11.442;2022-10-03T19:06:49;10.60;99.90
14122;DHT22;7139;48.114;11.442;2022-10-03T19:09:22;10.50;99.90
14122;DHT22;7139;48.114;11.442;2022-10-03T19:11:52;10.30;99.90
14122;DHT22;7139;48.114;11.442;2022-10-03T19:14:27;10.20;99.90
14122;DHT22;7139;48.114;11.442;2022-10-03T19:17:24;10.20;99.90
14122;DHT22;7139;48.114;11.442;2022-10-03T19:19:58;10.10;99.90
14122;DHT22;7139;48.114;11.442;2022-10-03T19:22:29;10.00;99.90
14122;DHT22;7139;48.114;11.442;2022-10-03T19:25:00;10.00;99.90
14122;DHT22;7139;48.114;11.442;2022-10-03T19:27:41;10.00;99.90
14122;DHT22;7139;48.114;11.442;2022-10-03T19:30:17;9.90;99.90
14122;DHT22;7139;48.114;11.442;2022-10-03T19:32:48;9.90;99.90
14122;DHT22;7139;48.114;11.442;2022-10-03T19:35:19;9.80;99.90
14122;DHT22;7139;48.114;11.442;2022-10-03T19:37:49;9.80;99.90
14122;DHT22;7139;48.114;11.442;2022-10-03T19:40:36;9.80;99.90
14122;DHT22;7139;48.114;11.442;2022-10-03T19:43:30;9.70;99.90
14122;DHT22;7139;48.114;11.442;2022-10-03T19:46:08;9.60;99.90